Archival Weather

Chicago O'Hare International

Chicago, Illinois (KORD)

Report from: Sunday, November 19, 2023 5:51 PM CST
Current time: Sunday, February 25, 2024 3:34 PM CST

Current weather – Weather history – Daily summaries
Weather forecast

Temperature7.8°C (46.0°F)
Wind chill5.0°C (41.0°F)
Dew point2.8°C (37.0°F)
Winds 9 kts (4.6 m/s, 10.4 mph) Northeast (50°)
Visibility10 mi. (16.1 km)
Clouds Few clouds 2,500 ft. (762 m)
Few clouds 18,000 ft. (5,486 m)
Ceiling: Broken clouds 25,000 ft. (7,620 m)
Altimeter30.06 in.Hg (1018 mB)
Relative humidity71 %
Density altitude-929 ft. (-283 m)
Sea-level pressure101.8 kPa (1018 mB, 30.07 in.Hg)
Max temp last 6 hours12.2°C (54.0°F)
Min temp last 6 hours7.8°C (46.0°F)
Remarks Automated weather observing station with precipitation discriminator
Pressure rising more quickly
Flight conditions Visual Meteorological Conditions
Raw dataKORD 192351Z 05009KT 10SM FEW025 FEW180 BKN250 08/03 A3006 RMK AO2 SLP184 T00780028 10122 20078 53006
An error has occurred. This application may no longer respond until reloaded. Reload 🗙